sensor_id;sensor_type;location;lat;lon;timestamp;P1;durP1;ratioP1;P2;durP2;ratioP2
39772;SDS011;25451;51.960;6.250;2023-04-24T00:01:27;8.93;;;4.50;;
39772;SDS011;25451;51.960;6.250;2023-04-24T00:03:54;8.95;;;4.82;;
39772;SDS011;25451;51.960;6.250;2023-04-24T00:06:20;9.13;;;4.82;;
39772;SDS011;25451;51.960;6.250;2023-04-24T00:08:48;9.73;;;4.88;;
39772;SDS011;25451;51.960;6.250;2023-04-24T00:11:13;7.83;;;4.70;;
39772;SDS011;25451;51.960;6.250;2023-04-24T00:13:39;8.53;;;5.10;;
39772;SDS011;25451;51.960;6.250;2023-04-24T00:16:04;9.33;;;5.30;;
39772;SDS011;25451;51.960;6.250;2023-04-24T00:18:30;8.57;;;5.40;;
39772;SDS011;25451;51.960;6.250;2023-04-24T00:20:56;11.67;;;6.30;;
39772;SDS011;25451;51.960;6.250;2023-04-24T00:23:21;10.37;;;5.40;;
39772;SDS011;25451;51.960;6.250;2023-04-24T00:25:46;11.83;;;5.77;;
39772;SDS011;25451;51.960;6.250;2023-04-24T00:28:11;9.40;;;5.30;;
39772;SDS011;25451;51.960;6.250;2023-04-24T00:30:37;10.07;;;5.20;;
39772;SDS011;25451;51.960;6.250;2023-04-24T00:33:02;8.13;;;5.03;;
39772;SDS011;25451;51.960;6.250;2023-04-24T00:35:28;9.85;;;5.25;;
39772;SDS011;25451;51.960;6.250;2023-04-24T00:37:53;8.20;;;4.93;;
39772;SDS011;25451;51.960;6.250;2023-04-24T00:40:18;9.07;;;4.97;;
39772;SDS011;25451;51.960;6.250;2023-04-24T00:42:43;8.20;;;4.70;;
39772;SDS011;25451;51.960;6.250;2023-04-24T00:45:10;8.50;;;4.70;;
39772;SDS011;25451;51.960;6.250;2023-04-24T00:47:35;8.43;;;4.87;;
39772;SDS011;25451;51.960;6.250;2023-04-24T00:50:02;7.28;;;4.22;;
39772;SDS011;25451;51.960;6.250;2023-04-24T00:52:31;7.97;;;4.80;;
39772;SDS011;25451;51.960;6.250;2023-04-24T00:54:57;6.57;;;4.00;;
39772;SDS011;25451;51.960;6.250;2023-04-24T00:57:23;8.13;;;4.10;;
39772;SDS011;25451;51.960;6.250;2023-04-24T00:59:49;7.40;;;4.07;;
39772;SDS011;25451;51.960;6.250;2023-04-24T01:02:15;6.65;;;3.67;;
39772;SDS011;25451;51.960;6.250;2023-04-24T01:04:41;6.43;;;3.65;;
39772;SDS011;25451;51.960;6.250;2023-04-24T01:07:07;6.13;;;3.73;;
39772;SDS011;25451;51.960;6.250;2023-04-24T01:09:36;6.18;;;3.60;;
39772;SDS011;25451;51.960;6.250;2023-04-24T01:12:04;5.85;;;3.40;;
39772;SDS011;25451;51.960;6.250;2023-04-24T01:14:30;6.22;;;3.47;;
39772;SDS011;25451;51.960;6.250;2023-04-24T01:16:56;5.07;;;3.23;;
39772;SDS011;25451;51.960;6.250;2023-04-24T01:19:22;6.65;;;3.50;;
39772;SDS011;25451;51.960;6.250;2023-04-24T01:21:48;7.97;;;3.70;;
39772;SDS011;25451;51.960;6.250;2023-04-24T01:24:18;6.78;;;3.85;;
39772;SDS011;25451;51.960;6.250;2023-04-24T01:26:44;7.35;;;4.20;;
39772;SDS011;25451;51.960;6.250;2023-04-24T01:29:10;6.80;;;4.00;;
39772;SDS011;25451;51.960;6.250;2023-04-24T01:31:36;7.30;;;4.33;;
39772;SDS011;25451;51.960;6.250;2023-04-24T01:34:02;7.97;;;3.97;;
39772;SDS011;25451;51.960;6.250;2023-04-24T01:36:27;7.43;;;4.03;;
39772;SDS011;25451;51.960;6.250;2023-04-24T01:38:55;7.38;;;4.40;;
39772;SDS011;25451;51.960;6.250;2023-04-24T01:41:20;9.07;;;4.10;;
39772;SDS011;25451;51.960;6.250;2023-04-24T01:43:46;8.18;;;4.65;;
39772;SDS011;25451;51.960;6.250;2023-04-24T01:46:13;6.97;;;4.07;;
39772;SDS011;25451;51.960;6.250;2023-04-24T01:48:38;7.80;;;4.68;;
39772;SDS011;25451;51.960;6.250;2023-04-24T01:51:04;9.02;;;4.57;;
39772;SDS011;25451;51.960;6.250;2023-04-24T01:53:29;8.40;;;4.63;;
39772;SDS011;25451;51.960;6.250;2023-04-24T01:55:55;9.97;;;5.03;;
39772;SDS011;25451;51.960;6.250;2023-04-24T01:58:20;9.43;;;4.82;;
39772;SDS011;25451;51.960;6.250;2023-04-24T02:00:46;11.17;;;4.90;;
39772;SDS011;25451;51.960;6.250;2023-04-24T02:03:11;9.37;;;5.00;;
39772;SDS011;25451;51.960;6.250;2023-04-24T02:05:37;8.85;;;4.85;;
39772;SDS011;25451;51.960;6.250;2023-04-24T02:08:02;9.40;;;5.13;;
39772;SDS011;25451;51.960;6.250;2023-04-24T02:10:27;11.57;;;5.33;;
39772;SDS011;25451;51.960;6.250;2023-04-24T02:12:52;10.37;;;5.30;;
39772;SDS011;25451;51.960;6.250;2023-04-24T02:15:18;9.50;;;5.30;;
39772;SDS011;25451;51.960;6.250;2023-04-24T02:17:43;10.63;;;5.63;;
39772;SDS011;25451;51.960;6.250;2023-04-24T02:20:08;11.77;;;5.90;;
39772;SDS011;25451;51.960;6.250;2023-04-24T02:22:34;12.10;;;5.73;;
39772;SDS011;25451;51.960;6.250;2023-04-24T02:24:59;12.40;;;6.30;;
39772;SDS011;25451;51.960;6.250;2023-04-24T02:27:25;13.37;;;6.17;;
39772;SDS011;25451;51.960;6.250;2023-04-24T02:29:50;12.97;;;6.07;;
39772;SDS011;25451;51.960;6.250;2023-04-24T02:32:15;11.43;;;6.00;;
39772;SDS011;25451;51.960;6.250;2023-04-24T02:34:41;12.37;;;5.83;;
39772;SDS011;25451;51.960;6.250;2023-04-24T02:37:06;10.93;;;6.07;;
39772;SDS011;25451;51.960;6.250;2023-04-24T02:39:31;10.20;;;5.67;;
39772;SDS011;25451;51.960;6.250;2023-04-24T02:41:57;12.55;;;5.60;;
39772;SDS011;25451;51.960;6.250;2023-04-24T02:44:23;9.18;;;5.38;;
39772;SDS011;25451;51.960;6.250;2023-04-24T02:46:48;10.23;;;5.60;;
39772;SDS011;25451;51.960;6.250;2023-04-24T02:49:13;8.80;;;5.10;;
39772;SDS011;25451;51.960;6.250;2023-04-24T02:51:38;7.28;;;4.53;;
39772;SDS011;25451;51.960;6.250;2023-04-24T02:54:06;7.67;;;4.40;;
39772;SDS011;25451;51.960;6.250;2023-04-24T02:56:32;10.45;;;4.78;;
39772;SDS011;25451;51.960;6.250;2023-04-24T02:58:58;8.00;;;4.93;;
39772;SDS011;25451;51.960;6.250;2023-04-24T03:01:23;9.27;;;4.83;;
39772;SDS011;25451;51.960;6.250;2023-04-24T03:03:48;9.10;;;5.13;;
39772;SDS011;25451;51.960;6.250;2023-04-24T03:06:14;10.85;;;5.57;;
39772;SDS011;25451;51.960;6.250;2023-04-24T03:08:40;9.45;;;5.28;;
39772;SDS011;25451;51.960;6.250;2023-04-24T03:11:05;10.53;;;5.90;;
39772;SDS011;25451;51.960;6.250;2023-04-24T03:13:31;10.00;;;6.37;;
39772;SDS011;25451;51.960;6.250;2023-04-24T03:15:56;10.40;;;5.97;;
39772;SDS011;25451;51.960;6.250;2023-04-24T03:18:21;12.43;;;6.80;;
39772;SDS011;25451;51.960;6.250;2023-04-24T03:20:46;13.20;;;7.07;;
39772;SDS011;25451;51.960;6.250;2023-04-24T03:23:12;14.27;;;7.50;;
39772;SDS011;25451;51.960;6.250;2023-04-24T03:25:37;13.25;;;7.82;;
39772;SDS011;25451;51.960;6.250;2023-04-24T03:28:03;16.73;;;7.57;;
39772;SDS011;25451;51.960;6.250;2023-04-24T03:30:29;15.02;;;7.90;;
39772;SDS011;25451;51.960;6.250;2023-04-24T03:32:55;15.77;;;7.70;;
39772;SDS011;25451;51.960;6.250;2023-04-24T03:35:20;14.33;;;8.17;;
39772;SDS011;25451;51.960;6.250;2023-04-24T03:37:46;13.63;;;7.80;;
39772;SDS011;25451;51.960;6.250;2023-04-24T03:40:12;16.07;;;8.67;;
39772;SDS011;25451;51.960;6.250;2023-04-24T03:42:37;16.35;;;8.98;;
39772;SDS011;25451;51.960;6.250;2023-04-24T03:45:02;15.93;;;8.90;;
39772;SDS011;25451;51.960;6.250;2023-04-24T03:47:28;17.83;;;9.73;;
39772;SDS011;25451;51.960;6.250;2023-04-24T03:49:53;21.10;;;9.73;;
39772;SDS011;25451;51.960;6.250;2023-04-24T03:52:20;18.25;;;9.63;;
39772;SDS011;25451;51.960;6.250;2023-04-24T03:54:46;18.53;;;9.60;;
39772;SDS011;25451;51.960;6.250;2023-04-24T03:57:11;17.77;;;9.47;;
39772;SDS011;25451;51.960;6.250;2023-04-24T03:59:36;20.27;;;9.83;;
39772;SDS011;25451;51.960;6.250;2023-04-24T04:02:01;18.27;;;9.23;;
39772;SDS011;25451;51.960;6.250;2023-04-24T04:04:27;17.33;;;9.10;;
39772;SDS011;25451;51.960;6.250;2023-04-24T04:06:52;16.47;;;9.13;;
39772;SDS011;25451;51.960;6.250;2023-04-24T04:09:18;16.97;;;9.63;;
39772;SDS011;25451;51.960;6.250;2023-04-24T04:11:43;17.42;;;9.95;;
39772;SDS011;25451;51.960;6.250;2023-04-24T04:14:09;18.45;;;9.27;;
39772;SDS011;25451;51.960;6.250;2023-04-24T04:16:34;15.50;;;8.87;;
39772;SDS011;25451;51.960;6.250;2023-04-24T04:19:01;16.15;;;8.88;;
39772;SDS011;25451;51.960;6.250;2023-04-24T04:21:27;16.57;;;9.23;;
39772;SDS011;25451;51.960;6.250;2023-04-24T04:23:53;18.50;;;9.60;;
39772;SDS011;25451;51.960;6.250;2023-04-24T04:26:18;18.90;;;9.33;;
39772;SDS011;25451;51.960;6.250;2023-04-24T04:28:44;16.67;;;9.37;;
39772;SDS011;25451;51.960;6.250;2023-04-24T04:31:09;17.03;;;9.33;;
39772;SDS011;25451;51.960;6.250;2023-04-24T04:33:34;15.43;;;8.57;;
39772;SDS011;25451;51.960;6.250;2023-04-24T04:36:01;17.27;;;8.93;;
39772;SDS011;25451;51.960;6.250;2023-04-24T04:38:26;20.07;;;9.23;;
39772;SDS011;25451;51.960;6.250;2023-04-24T04:40:55;16.58;;;8.98;;
39772;SDS011;25451;51.960;6.250;2023-04-24T04:43:22;18.33;;;8.77;;
39772;SDS011;25451;51.960;6.250;2023-04-24T04:45:49;16.60;;;8.50;;
39772;SDS011;25451;51.960;6.250;2023-04-24T04:48:16;17.38;;;8.52;;
39772;SDS011;25451;51.960;6.250;2023-04-24T04:50:42;16.43;;;7.90;;
39772;SDS011;25451;51.960;6.250;2023-04-24T04:53:08;14.75;;;8.38;;
39772;SDS011;25451;51.960;6.250;2023-04-24T04:55:33;14.83;;;8.43;;
39772;SDS011;25451;51.960;6.250;2023-04-24T04:57:58;16.33;;;7.97;;
39772;SDS011;25451;51.960;6.250;2023-04-24T05:00:25;14.60;;;7.88;;
39772;SDS011;25451;51.960;6.250;2023-04-24T05:02:50;15.43;;;8.23;;
39772;SDS011;25451;51.960;6.250;2023-04-24T05:05:16;15.43;;;7.67;;
39772;SDS011;25451;51.960;6.250;2023-04-24T05:07:42;15.25;;;7.60;;
39772;SDS011;25451;51.960;6.250;2023-04-24T05:10:08;15.27;;;7.80;;
39772;SDS011;25451;51.960;6.250;2023-04-24T05:12:34;17.13;;;7.93;;
39772;SDS011;25451;51.960;6.250;2023-04-24T05:14:59;17.65;;;7.40;;
39772;SDS011;25451;51.960;6.250;2023-04-24T05:17:24;12.73;;;7.32;;
39772;SDS011;25451;51.960;6.250;2023-04-24T05:19:50;14.13;;;7.17;;
39772;SDS011;25451;51.960;6.250;2023-04-24T05:22:16;16.17;;;7.33;;
39772;SDS011;25451;51.960;6.250;2023-04-24T05:24:43;15.85;;;7.53;;
39772;SDS011;25451;51.960;6.250;2023-04-24T05:27:08;16.50;;;7.90;;
39772;SDS011;25451;51.960;6.250;2023-04-24T05:29:34;14.25;;;7.50;;
39772;SDS011;25451;51.960;6.250;2023-04-24T05:31:59;13.50;;;7.23;;
39772;SDS011;25451;51.960;6.250;2023-04-24T05:34:25;13.32;;;8.02;;
39772;SDS011;25451;51.960;6.250;2023-04-24T05:36:50;16.08;;;7.20;;
39772;SDS011;25451;51.960;6.250;2023-04-24T05:39:16;15.40;;;7.67;;
39772;SDS011;25451;51.960;6.250;2023-04-24T05:41:42;14.15;;;6.95;;
39772;SDS011;25451;51.960;6.250;2023-04-24T05:44:08;13.63;;;6.70;;
39772;SDS011;25451;51.960;6.250;2023-04-24T05:46:34;12.38;;;6.97;;
39772;SDS011;25451;51.960;6.250;2023-04-24T05:48:59;12.03;;;6.00;;
39772;SDS011;25451;51.960;6.250;2023-04-24T05:51:24;11.53;;;6.07;;
39772;SDS011;25451;51.960;6.250;2023-04-24T05:53:50;9.73;;;5.78;;
39772;SDS011;25451;51.960;6.250;2023-04-24T05:56:16;11.77;;;5.83;;
39772;SDS011;25451;51.960;6.250;2023-04-24T05:58:41;10.10;;;5.55;;
39772;SDS011;25451;51.960;6.250;2023-04-24T06:01:07;9.57;;;5.50;;
39772;SDS011;25451;51.960;6.250;2023-04-24T06:03:32;9.40;;;5.50;;
39772;SDS011;25451;51.960;6.250;2023-04-24T06:05:58;10.15;;;5.30;;
39772;SDS011;25451;51.960;6.250;2023-04-24T06:08:23;8.03;;;5.03;;
39772;SDS011;25451;51.960;6.250;2023-04-24T06:10:49;9.53;;;4.97;;
39772;SDS011;25451;51.960;6.250;2023-04-24T06:13:14;10.73;;;5.30;;
39772;SDS011;25451;51.960;6.250;2023-04-24T06:15:40;11.57;;;5.10;;
39772;SDS011;25451;51.960;6.250;2023-04-24T06:18:05;8.33;;;4.77;;
39772;SDS011;25451;51.960;6.250;2023-04-24T06:20:31;9.47;;;5.07;;
39772;SDS011;25451;51.960;6.250;2023-04-24T06:22:56;9.87;;;5.20;;
39772;SDS011;25451;51.960;6.250;2023-04-24T06:25:22;10.67;;;4.70;;
39772;SDS011;25451;51.960;6.250;2023-04-24T06:27:49;8.32;;;4.60;;
39772;SDS011;25451;51.960;6.250;2023-04-24T06:30:14;8.00;;;4.57;;
39772;SDS011;25451;51.960;6.250;2023-04-24T06:32:40;8.65;;;4.82;;
39772;SDS011;25451;51.960;6.250;2023-04-24T06:35:05;9.17;;;4.83;;
39772;SDS011;25451;51.960;6.250;2023-04-24T06:37:32;10.80;;;5.10;;
39772;SDS011;25451;51.960;6.250;2023-04-24T06:39:58;8.27;;;4.68;;
39772;SDS011;25451;51.960;6.250;2023-04-24T06:42:23;8.03;;;4.37;;
39772;SDS011;25451;51.960;6.250;2023-04-24T06:44:49;6.50;;;4.00;;
39772;SDS011;25451;51.960;6.250;2023-04-24T06:47:15;7.22;;;3.97;;
39772;SDS011;25451;51.960;6.250;2023-04-24T06:49:40;7.40;;;4.05;;
39772;SDS011;25451;51.960;6.250;2023-04-24T06:52:05;7.80;;;4.03;;
39772;SDS011;25451;51.960;6.250;2023-04-24T06:54:31;9.13;;;4.70;;
39772;SDS011;25451;51.960;6.250;2023-04-24T06:56:57;7.55;;;4.53;;
39772;SDS011;25451;51.960;6.250;2023-04-24T06:59:24;7.55;;;4.25;;
39772;SDS011;25451;51.960;6.250;2023-04-24T07:01:49;8.70;;;4.15;;
39772;SDS011;25451;51.960;6.250;2023-04-24T07:04:16;8.45;;;4.63;;
39772;SDS011;25451;51.960;6.250;2023-04-24T07:06:41;8.23;;;4.32;;
39772;SDS011;25451;51.960;6.250;2023-04-24T07:09:07;7.57;;;4.60;;
39772;SDS011;25451;51.960;6.250;2023-04-24T07:11:34;8.40;;;4.03;;
39772;SDS011;25451;51.960;6.250;2023-04-24T07:14:01;7.32;;;4.50;;
39772;SDS011;25451;51.960;6.250;2023-04-24T07:16:26;6.87;;;3.67;;
39772;SDS011;25451;51.960;6.250;2023-04-24T07:18:52;5.85;;;3.25;;
39772;SDS011;25451;51.960;6.250;2023-04-24T07:21:18;5.83;;;3.20;;
39772;SDS011;25451;51.960;6.250;2023-04-24T07:23:43;6.13;;;2.80;;
39772;SDS011;25451;51.960;6.250;2023-04-24T07:26:08;6.07;;;3.17;;
39772;SDS011;25451;51.960;6.250;2023-04-24T07:28:34;5.07;;;2.70;;
39772;SDS011;25451;51.960;6.250;2023-04-24T07:30:59;6.50;;;2.93;;
39772;SDS011;25451;51.960;6.250;2023-04-24T07:33:25;4.83;;;2.70;;
39772;SDS011;25451;51.960;6.250;2023-04-24T07:35:51;5.50;;;2.85;;
39772;SDS011;25451;51.960;6.250;2023-04-24T07:38:17;5.97;;;3.00;;
39772;SDS011;25451;51.960;6.250;2023-04-24T07:40:45;6.22;;;2.90;;
39772;SDS011;25451;51.960;6.250;2023-04-24T07:43:10;6.27;;;3.13;;
39772;SDS011;25451;51.960;6.250;2023-04-24T07:45:35;6.40;;;3.20;;
39772;SDS011;25451;51.960;6.250;2023-04-24T07:48:02;6.25;;;3.13;;
39772;SDS011;25451;51.960;6.250;2023-04-24T07:50:28;6.30;;;3.33;;
39772;SDS011;25451;51.960;6.250;2023-04-24T07:52:53;5.80;;;3.10;;
39772;SDS011;25451;51.960;6.250;2023-04-24T07:55:18;5.63;;;3.10;;
39772;SDS011;25451;51.960;6.250;2023-04-24T07:57:43;5.57;;;2.90;;
39772;SDS011;25451;51.960;6.250;2023-04-24T08:00:09;5.37;;;2.73;;
39772;SDS011;25451;51.960;6.250;2023-04-24T08:02:35;4.90;;;2.78;;
39772;SDS011;25451;51.960;6.250;2023-04-24T08:05:00;5.00;;;3.17;;
39772;SDS011;25451;51.960;6.250;2023-04-24T08:07:26;5.40;;;2.80;;
39772;SDS011;25451;51.960;6.250;2023-04-24T08:09:51;4.72;;;2.28;;
39772;SDS011;25451;51.960;6.250;2023-04-24T08:12:16;4.97;;;2.00;;
39772;SDS011;25451;51.960;6.250;2023-04-24T08:14:42;4.47;;;1.97;;
39772;SDS011;25451;51.960;6.250;2023-04-24T08:17:07;3.30;;;1.70;;
39772;SDS011;25451;51.960;6.250;2023-04-24T08:19:32;3.07;;;1.83;;
39772;SDS011;25451;51.960;6.250;2023-04-24T08:21:58;2.50;;;1.30;;
39772;SDS011;25451;51.960;6.250;2023-04-24T08:24:23;3.90;;;1.43;;
39772;SDS011;25451;51.960;6.250;2023-04-24T08:26:48;2.20;;;1.30;;
39772;SDS011;25451;51.960;6.250;2023-04-24T08:29:18;3.63;;;1.45;;
39772;SDS011;25451;51.960;6.250;2023-04-24T08:31:44;3.60;;;1.80;;
39772;SDS011;25451;51.960;6.250;2023-04-24T08:34:09;3.63;;;1.95;;
39772;SDS011;25451;51.960;6.250;2023-04-24T08:36:35;6.47;;;2.53;;
39772;SDS011;25451;51.960;6.250;2023-04-24T08:39:01;4.75;;;2.15;;
39772;SDS011;25451;51.960;6.250;2023-04-24T08:41:27;6.07;;;3.30;;
39772;SDS011;25451;51.960;6.250;2023-04-24T08:43:52;8.00;;;3.70;;
39772;SDS011;25451;51.960;6.250;2023-04-24T08:46:20;6.75;;;3.70;;
39772;SDS011;25451;51.960;6.250;2023-04-24T08:48:45;7.05;;;4.00;;
39772;SDS011;25451;51.960;6.250;2023-04-24T08:51:11;6.50;;;3.75;;
39772;SDS011;25451;51.960;6.250;2023-04-24T08:53:36;8.23;;;3.70;;
39772;SDS011;25451;51.960;6.250;2023-04-24T08:56:03;8.10;;;3.70;;
39772;SDS011;25451;51.960;6.250;2023-04-24T08:58:28;8.13;;;3.70;;
39772;SDS011;25451;51.960;6.250;2023-04-24T09:00:55;9.20;;;3.90;;
39772;SDS011;25451;51.960;6.250;2023-04-24T09:03:21;8.67;;;3.67;;
39772;SDS011;25451;51.960;6.250;2023-04-24T09:05:47;7.63;;;3.83;;
39772;SDS011;25451;51.960;6.250;2023-04-24T09:08:14;7.38;;;3.83;;
39772;SDS011;25451;51.960;6.250;2023-04-24T09:10:41;7.70;;;3.80;;
39772;SDS011;25451;51.960;6.250;2023-04-24T09:13:06;8.23;;;3.57;;
39772;SDS011;25451;51.960;6.250;2023-04-24T09:15:34;7.07;;;3.78;;
39772;SDS011;25451;51.960;6.250;2023-04-24T09:18:00;27.80;;;7.88;;
39772;SDS011;25451;51.960;6.250;2023-04-24T09:20:26;6.60;;;3.63;;
39772;SDS011;25451;51.960;6.250;2023-04-24T09:22:53;10.47;;;4.13;;
39772;SDS011;25451;51.960;6.250;2023-04-24T09:25:20;6.65;;;3.88;;
39772;SDS011;25451;51.960;6.250;2023-04-24T09:27:46;7.03;;;3.47;;
39772;SDS011;25451;51.960;6.250;2023-04-24T09:30:12;8.50;;;3.70;;
39772;SDS011;25451;51.960;6.250;2023-04-24T09:32:38;5.93;;;3.22;;
39772;SDS011;25451;51.960;6.250;2023-04-24T09:37:36;6.55;;;2.97;;
39772;SDS011;25451;51.960;6.250;2023-04-24T09:42:40;6.18;;;2.88;;
39772;SDS011;25451;51.960;6.250;2023-04-24T09:45:09;6.60;;;2.47;;
39772;SDS011;25451;51.960;6.250;2023-04-24T09:47:40;5.38;;;2.25;;
39772;SDS011;25451;51.960;6.250;2023-04-24T09:50:16;5.07;;;2.33;;
39772;SDS011;25451;51.960;6.250;2023-04-24T09:52:46;4.00;;;2.20;;
39772;SDS011;25451;51.960;6.250;2023-04-24T09:55:20;8.18;;;2.50;;
39772;SDS011;25451;51.960;6.250;2023-04-24T09:57:53;6.75;;;2.60;;
39772;SDS011;25451;51.960;6.250;2023-04-24T10:03:05;6.65;;;2.83;;
39772;SDS011;25451;51.960;6.250;2023-04-24T10:05:32;6.95;;;2.30;;
39772;SDS011;25451;51.960;6.250;2023-04-24T10:08:02;5.78;;;2.50;;
39772;SDS011;25451;51.960;6.250;2023-04-24T10:10:28;7.53;;;2.45;;
39772;SDS011;25451;51.960;6.250;2023-04-24T10:12:54;7.07;;;2.40;;
39772;SDS011;25451;51.960;6.250;2023-04-24T10:15:20;8.80;;;2.40;;
39772;SDS011;25451;51.960;6.250;2023-04-24T10:17:49;7.38;;;2.20;;
39772;SDS011;25451;51.960;6.250;2023-04-24T10:20:22;5.55;;;1.88;;
39772;SDS011;25451;51.960;6.250;2023-04-24T10:22:49;8.65;;;2.10;;
39772;SDS011;25451;51.960;6.250;2023-04-24T10:25:20;6.40;;;2.20;;
39772;SDS011;25451;51.960;6.250;2023-04-24T10:27:48;5.80;;;1.90;;
39772;SDS011;25451;51.960;6.250;2023-04-24T10:30:15;9.38;;;2.20;;
39772;SDS011;25451;51.960;6.250;2023-04-24T10:32:41;7.13;;;2.10;;
39772;SDS011;25451;51.960;6.250;2023-04-24T10:35:07;7.93;;;2.23;;
39772;SDS011;25451;51.960;6.250;2023-04-24T10:37:35;10.82;;;2.00;;
39772;SDS011;25451;51.960;6.250;2023-04-24T10:40:03;9.48;;;2.10;;
39772;SDS011;25451;51.960;6.250;2023-04-24T10:42:30;8.20;;;1.95;;
39772;SDS011;25451;51.960;6.250;2023-04-24T10:44:55;5.70;;;1.98;;
39772;SDS011;25451;51.960;6.250;2023-04-24T10:47:22;10.27;;;2.17;;
39772;SDS011;25451;51.960;6.250;2023-04-24T10:49:49;5.70;;;2.10;;
39772;SDS011;25451;51.960;6.250;2023-04-24T10:52:15;6.13;;;2.28;;
39772;SDS011;25451;51.960;6.250;2023-04-24T10:54:45;7.17;;;2.33;;
39772;SDS011;25451;51.960;6.250;2023-04-24T10:59:46;10.68;;;2.30;;
39772;SDS011;25451;51.960;6.250;2023-04-24T11:02:38;7.75;;;2.65;;
39772;SDS011;25451;51.960;6.250;2023-04-24T11:05:05;7.22;;;2.45;;
39772;SDS011;25451;51.960;6.250;2023-04-24T11:08:08;9.93;;;2.00;;
39772;SDS011;25451;51.960;6.250;2023-04-24T11:10:39;4.18;;;1.95;;
39772;SDS011;25451;51.960;6.250;2023-04-24T11:13:25;10.27;;;2.05;;
39772;SDS011;25451;51.960;6.250;2023-04-24T11:18:52;8.35;;;2.20;;
39772;SDS011;25451;51.960;6.250;2023-04-24T11:21:25;6.68;;;2.30;;
39772;SDS011;25451;51.960;6.250;2023-04-24T11:23:56;5.00;;;1.92;;
39772;SDS011;25451;51.960;6.250;2023-04-24T11:26:22;9.17;;;2.10;;
39772;SDS011;25451;51.960;6.250;2023-04-24T11:29:05;10.10;;;2.03;;
39772;SDS011;25451;51.960;6.250;2023-04-24T11:31:39;7.43;;;2.10;;
39772;SDS011;25451;51.960;6.250;2023-04-24T11:34:13;5.68;;;1.70;;
39772;SDS011;25451;51.960;6.250;2023-04-24T11:36:46;6.32;;;1.90;;
39772;SDS011;25451;51.960;6.250;2023-04-24T11:39:12;4.57;;;1.60;;
39772;SDS011;25451;51.960;6.250;2023-04-24T11:41:38;4.65;;;1.50;;
39772;SDS011;25451;51.960;6.250;2023-04-24T11:44:05;3.63;;;1.40;;
39772;SDS011;25451;51.960;6.250;2023-04-24T11:46:31;4.10;;;1.10;;
39772;SDS011;25451;51.960;6.250;2023-04-24T11:48:57;2.63;;;1.20;;
39772;SDS011;25451;51.960;6.250;2023-04-24T11:51:23;4.45;;;1.05;;
39772;SDS011;25451;51.960;6.250;2023-04-24T11:53:53;2.92;;;1.30;;
39772;SDS011;25451;51.960;6.250;2023-04-24T11:56:21;3.63;;;1.30;;
39772;SDS011;25451;51.960;6.250;2023-04-24T11:58:47;5.88;;;1.10;;
39772;SDS011;25451;51.960;6.250;2023-04-24T12:01:13;4.03;;;1.07;;
39772;SDS011;25451;51.960;6.250;2023-04-24T12:03:38;3.38;;;1.17;;
39772;SDS011;25451;51.960;6.250;2023-04-24T12:06:07;6.70;;;1.17;;
39772;SDS011;25451;51.960;6.250;2023-04-24T12:08:34;2.90;;;1.05;;
39772;SDS011;25451;51.960;6.250;2023-04-24T12:11:00;4.65;;;1.20;;
39772;SDS011;25451;51.960;6.250;2023-04-24T12:13:26;2.88;;;1.10;;
39772;SDS011;25451;51.960;6.250;2023-04-24T12:15:52;2.97;;;1.20;;
39772;SDS011;25451;51.960;6.250;2023-04-24T12:18:17;2.13;;;0.80;;
39772;SDS011;25451;51.960;6.250;2023-04-24T12:20:43;3.37;;;0.90;;
39772;SDS011;25451;51.960;6.250;2023-04-24T12:23:08;3.37;;;0.90;;
39772;SDS011;25451;51.960;6.250;2023-04-24T12:25:33;4.97;;;1.00;;
39772;SDS011;25451;51.960;6.250;2023-04-24T12:30:27;2.15;;;0.80;;
39772;SDS011;25451;51.960;6.250;2023-04-24T12:32:54;1.95;;;0.90;;
39772;SDS011;25451;51.960;6.250;2023-04-24T12:35:22;2.83;;;0.93;;
39772;SDS011;25451;51.960;6.250;2023-04-24T12:37:48;2.70;;;0.80;;
39772;SDS011;25451;51.960;6.250;2023-04-24T12:40:14;2.55;;;0.90;;
39772;SDS011;25451;51.960;6.250;2023-04-24T12:42:45;3.63;;;1.00;;
39772;SDS011;25451;51.960;6.250;2023-04-24T12:45:12;3.33;;;1.00;;
39772;SDS011;25451;51.960;6.250;2023-04-24T12:47:39;2.85;;;1.08;;
39772;SDS011;25451;51.960;6.250;2023-04-24T12:50:05;4.37;;;1.10;;
39772;SDS011;25451;51.960;6.250;2023-04-24T12:52:32;3.20;;;1.13;;
39772;SDS011;25451;51.960;6.250;2023-04-24T12:54:58;1.80;;;0.90;;
39772;SDS011;25451;51.960;6.250;2023-04-24T12:57:26;3.72;;;1.00;;
39772;SDS011;25451;51.960;6.250;2023-04-24T12:59:56;1.88;;;1.00;;
39772;SDS011;25451;51.960;6.250;2023-04-24T13:02:23;2.42;;;0.90;;
39772;SDS011;25451;51.960;6.250;2023-04-24T13:04:58;1.58;;;0.70;;
39772;SDS011;25451;51.960;6.250;2023-04-24T13:07:24;2.42;;;1.25;;
39772;SDS011;25451;51.960;6.250;2023-04-24T13:09:50;2.92;;;0.77;;
39772;SDS011;25451;51.960;6.250;2023-04-24T13:12:16;4.82;;;1.00;;
39772;SDS011;25451;51.960;6.250;2023-04-24T13:14:43;2.63;;;0.80;;
39772;SDS011;25451;51.960;6.250;2023-04-24T13:17:08;3.95;;;1.00;;
39772;SDS011;25451;51.960;6.250;2023-04-24T13:19:38;3.03;;;0.73;;
39772;SDS011;25451;51.960;6.250;2023-04-24T13:22:04;4.78;;;0.90;;
39772;SDS011;25451;51.960;6.250;2023-04-24T13:24:30;2.17;;;0.88;;
39772;SDS011;25451;51.960;6.250;2023-04-24T13:26:56;3.03;;;1.20;;
39772;SDS011;25451;51.960;6.250;2023-04-24T13:29:22;2.17;;;0.80;;
39772;SDS011;25451;51.960;6.250;2023-04-24T13:31:47;2.80;;;0.77;;
39772;SDS011;25451;51.960;6.250;2023-04-24T13:34:15;2.58;;;0.85;;
39772;SDS011;25451;51.960;6.250;2023-04-24T13:36:40;3.80;;;0.90;;
39772;SDS011;25451;51.960;6.250;2023-04-24T13:39:05;3.70;;;0.97;;
39772;SDS011;25451;51.960;6.250;2023-04-24T13:41:32;2.95;;;0.90;;
39772;SDS011;25451;51.960;6.250;2023-04-24T13:43:58;4.10;;;1.10;;
39772;SDS011;25451;51.960;6.250;2023-04-24T13:46:23;3.10;;;1.00;;
39772;SDS011;25451;51.960;6.250;2023-04-24T13:48:49;1.90;;;0.80;;
39772;SDS011;25451;51.960;6.250;2023-04-24T13:51:14;4.82;;;1.10;;
39772;SDS011;25451;51.960;6.250;2023-04-24T13:53:40;2.88;;;1.30;;
39772;SDS011;25451;51.960;6.250;2023-04-24T13:56:05;2.37;;;0.97;;
39772;SDS011;25451;51.960;6.250;2023-04-24T13:58:31;5.53;;;1.20;;
39772;SDS011;25451;51.960;6.250;2023-04-24T14:01:01;4.30;;;1.08;;
39772;SDS011;25451;51.960;6.250;2023-04-24T14:03:27;3.63;;;1.00;;
39772;SDS011;25451;51.960;6.250;2023-04-24T14:05:52;5.50;;;1.10;;
39772;SDS011;25451;51.960;6.250;2023-04-24T14:08:18;4.27;;;1.10;;
39772;SDS011;25451;51.960;6.250;2023-04-24T14:10:43;5.80;;;1.10;;
39772;SDS011;25451;51.960;6.250;2023-04-24T14:13:08;4.50;;;1.10;;
39772;SDS011;25451;51.960;6.250;2023-04-24T14:15:35;4.53;;;1.20;;
39772;SDS011;25451;51.960;6.250;2023-04-24T14:18:00;6.80;;;1.15;;
39772;SDS011;25451;51.960;6.250;2023-04-24T14:20:26;5.87;;;1.23;;
39772;SDS011;25451;51.960;6.250;2023-04-24T14:22:51;6.10;;;1.37;;
39772;SDS011;25451;51.960;6.250;2023-04-24T14:25:16;4.10;;;1.40;;
39772;SDS011;25451;51.960;6.250;2023-04-24T14:27:42;7.03;;;1.07;;
39772;SDS011;25451;51.960;6.250;2023-04-24T14:30:07;3.50;;;1.07;;
39772;SDS011;25451;51.960;6.250;2023-04-24T14:32:33;4.78;;;1.20;;
39772;SDS011;25451;51.960;6.250;2023-04-24T14:34:58;4.87;;;1.30;;
39772;SDS011;25451;51.960;6.250;2023-04-24T14:37:24;5.10;;;1.30;;
39772;SDS011;25451;51.960;6.250;2023-04-24T14:39:49;6.30;;;1.40;;
39772;SDS011;25451;51.960;6.250;2023-04-24T14:42:14;9.80;;;1.52;;
39772;SDS011;25451;51.960;6.250;2023-04-24T14:44:41;5.70;;;1.40;;
39772;SDS011;25451;51.960;6.250;2023-04-24T14:47:07;6.13;;;1.37;;
39772;SDS011;25451;51.960;6.250;2023-04-24T14:49:33;4.97;;;1.40;;
39772;SDS011;25451;51.960;6.250;2023-04-24T14:51:58;4.70;;;1.50;;
39772;SDS011;25451;51.960;6.250;2023-04-24T14:54:24;5.10;;;1.50;;